Time;durP1;ratioP1;P1;durP2;ratioP2;P2;SDS_P1;SDS_P2;PMS_P1;PMS_P2;Temp;Humidity;BMP_temperature;BMP_pressure;BME280_temperature;BME280_humidity;BME280_pressure;Samples;Min_cycle;Max_cycle;Signal;HPM_P1;HPM_P2
2023/10/16 00:01:27;;;;;;;11.23;10.10;;;;;;;9.10;59.86;100466.31;5048023;27;98148;-71
2023/10/16 00:03:55;;;;;;;9.30;8.52;;;;;;;9.17;60.12;100480.97;5046147;27;97182;-71
2023/10/16 00:06:21;;;;;;;10.27;9.32;;;;;;;9.00;60.46;100455.22;5060082;27;97110;-71
2023/10/16 00:08:47;;;;;;;10.05;8.95;;;;;;;9.14;59.99;100475.81;5048414;27;96894;-71
2023/10/16 00:11:16;;;;;;;8.57;7.65;;;;;;;9.11;59.93;100468.03;5034850;27;97330;-71
2023/10/16 00:13:43;;;;;;;15.23;13.95;;;;;;;9.12;60.44;100475.00;5050094;27;97381;-71
2023/10/16 00:16:15;;;;;;;8.40;2.20;;;;;;;9.12;59.83;100464.50;5047208;27;97127;-71
2023/10/16 00:18:41;;;;;;;8.90;1.83;;;;;;;9.07;60.42;100476.84;5062797;27;97249;-71
2023/10/16 00:21:06;;;;;;;6.45;2.45;;;;;;;9.05;59.95;100473.44;5065343;27;97616;-71
2023/10/16 00:23:37;;;;;;;4.20;2.10;;;;;;;9.01;60.52;100477.88;5066852;27;97467;-72
2023/10/16 00:26:06;;;;;;;3.95;3.65;;;;;;;9.07;60.83;100476.84;5050723;27;96811;-71
2023/10/16 00:28:32;;;;;;;4.32;3.42;;;;;;;9.13;59.80;100488.94;5047761;27;96846;-76
2023/10/16 00:30:58;;;;;;;5.63;4.13;;;;;;;9.18;60.05;100481.81;5053938;27;98276;-70
2023/10/16 00:33:23;;;;;;;5.60;4.53;;;;;;;9.05;60.23;100447.25;5045363;27;98522;-74
2023/10/16 00:35:49;;;;;;;10.38;6.07;;;;;;;9.23;59.98;100478.19;5064243;27;97113;-73
2023/10/16 00:38:15;;;;;;;5.13;3.80;;;;;;;9.14;59.94;100460.09;5061078;27;96743;-70
2023/10/16 00:40:51;;;;;;;6.15;4.65;;;;;;;9.05;60.11;100453.34;5065274;27;98018;-70
2023/10/16 00:43:20;;;;;;;5.07;4.65;;;;;;;9.18;60.02;100472.22;5040232;27;98002;-76
2023/10/16 00:45:49;;;;;;;4.80;3.65;;;;;;;9.14;59.88;100475.81;5063816;27;96734;-70
2023/10/16 00:48:18;;;;;;;6.50;4.43;;;;;;;9.07;60.35;100479.47;5043360;27;97034;-70
2023/10/16 00:50:45;;;;;;;7.60;4.00;;;;;;;8.98;60.85;100491.03;5065087;27;98476;-71
2023/10/16 00:53:12;;;;;;;6.28;4.45;;;;;;;8.86;60.36;100480.03;5038248;27;97981;-70
2023/10/16 00:55:38;;;;;;;6.78;6.20;;;;;;;8.70;60.50;100456.00;5052918;27;97016;-70
2023/10/16 00:58:06;;;;;;;12.95;5.88;;;;;;;8.84;60.77;100480.03;5034023;27;96937;-70
2023/10/16 01:00:38;;;;;;;7.28;6.03;;;;;;;8.77;60.98;100489.81;5054227;27;98358;-70
2023/10/16 01:03:06;;;;;;;6.65;6.05;;;;;;;8.63;61.08;100460.47;5033337;27;101415;-70
2023/10/16 01:05:33;;;;;;;7.20;5.22;;;;;;;8.76;60.79;100477.63;5046153;27;97044;-72
2023/10/16 01:08:02;;;;;;;7.15;4.68;;;;;;;8.68;61.33;100476.94;5065304;27;97230;-72
2023/10/16 01:10:32;;;;;;;5.97;5.47;;;;;;;8.59;61.37;100488.50;5046126;27;98420;-71
2023/10/16 01:12:59;;;;;;;7.60;4.75;;;;;;;8.55;61.65;100484.25;5064172;27;98148;-75
2023/10/16 01:15:25;;;;;;;4.65;4.18;;;;;;;8.53;61.61;100482.53;5034755;27;96898;-70
2023/10/16 01:17:50;;;;;;;4.70;4.30;;;;;;;8.50;61.82;100483.47;5056369;27;97056;-71
2023/10/16 01:20:20;;;;;;;6.57;5.35;;;;;;;8.50;61.81;100475.63;5044266;27;97889;-73
2023/10/16 01:22:47;;;;;;;6.68;5.60;;;;;;;8.44;62.11;100478.38;5030605;27;99358;-70
2023/10/16 01:25:14;;;;;;;6.93;5.70;;;;;;;8.41;61.69;100474.94;5029685;27;97224;-71
2023/10/16 01:27:42;;;;;;;5.50;4.93;;;;;;;8.42;62.06;100468.84;5040789;27;96947;-71
2023/10/16 01:30:09;;;;;;;4.72;3.00;;;;;;;8.44;61.48;100481.00;5039961;27;98174;-70
2023/10/16 01:32:34;;;;;;;9.43;5.70;;;;;;;8.43;62.22;100486.25;5053088;27;97854;-71
2023/10/16 01:35:00;;;;;;;9.30;5.20;;;;;;;8.37;61.96;100480.22;5051800;27;96855;-71
2023/10/16 01:37:26;;;;;;;6.47;5.45;;;;;;;8.32;62.22;100479.50;5043619;27;97448;-70
2023/10/16 01:39:56;;;;;;;5.95;5.45;;;;;;;8.36;62.05;100472.44;5045467;27;97684;-71
2023/10/16 01:42:22;;;;;;;6.72;3.75;;;;;;;8.34;62.33;100482.06;5057397;27;97581;-73
2023/10/16 01:44:51;;;;;;;5.28;4.60;;;;;;;8.35;61.78;100473.34;5063694;27;96733;-71
2023/10/16 01:47:17;;;;;;;5.25;3.40;;;;;;;8.27;62.25;100463.03;5033758;27;96848;-71
2023/10/16 01:49:44;;;;;;;7.30;3.67;;;;;;;8.30;62.13;100489.13;5060422;27;97590;-71
2023/10/16 01:52:13;;;;;;;6.05;3.50;;;;;;;8.17;61.99;100456.25;5060062;27;97917;-71
2023/10/16 01:54:40;;;;;;;4.15;3.20;;;;;;;8.26;62.24;100477.00;5041114;27;96807;-71
2023/10/16 01:57:12;;;;;;;7.03;3.03;;;;;;;8.10;62.46;100452.94;5044505;27;97953;-71
2023/10/16 01:59:40;;;;;;;8.00;2.65;;;;;;;8.26;62.27;100483.97;5034613;27;101059;-72
2023/10/16 02:02:09;;;;;;;6.70;3.33;;;;;;;8.02;62.17;100452.22;5029286;27;101066;-71
2023/10/16 02:04:36;;;;;;;7.15;6.50;;;;;;;8.21;62.31;100491.09;5067842;27;96781;-71
2023/10/16 02:07:04;;;;;;;8.60;6.35;;;;;;;8.12;62.44;100477.31;5059450;27;96843;-71
2023/10/16 02:09:31;;;;;;;6.47;5.90;;;;;;;8.13;62.49;100475.53;5038791;27;98025;-72
2023/10/16 02:11:59;;;;;;;7.03;5.85;;;;;;;8.09;62.63;100486.97;5056875;27;97969;-73
2023/10/16 02:14:26;;;;;;;8.68;6.10;;;;;;;7.91;62.36;100452.47;5058569;27;96707;-71
2023/10/16 02:16:52;;;;;;;6.55;6.07;;;;;;;8.05;63.02;100480.06;5046785;27;97043;-71
2023/10/16 02:19:17;;;;;;;8.23;7.50;;;;;;;8.07;62.67;100481.75;5047227;27;101292;-71
2023/10/16 02:21:44;;;;;;;17.10;15.20;;;;;;;8.08;62.96;100487.84;5038890;27;98074;-70
2023/10/16 02:24:11;;;;;;;6.40;2.65;;;;;;;8.09;62.58;100487.81;5054558;27;96658;-70
2023/10/16 02:27:02;;;;;;;3.90;2.95;;;;;;;8.10;62.66;100486.06;5049798;27;97615;-71
2023/10/16 02:29:24;;;;;;;6.65;3.60;;;;;;;7.90;63.15;100470.78;5045555;27;98087;-70
2023/10/16 02:31:50;;;;;;;6.15;2.92;;;;;;;7.93;62.95;100489.03;5041703;27;99405;-71
2023/10/16 02:34:22;;;;;;;4.72;4.20;;;;;;;8.02;63.20;100501.91;5056645;27;97193;-70
2023/10/16 02:36:50;;;;;;;6.05;2.75;;;;;;;8.02;62.78;100488.84;5075186;27;96605;-70
2023/10/16 02:39:35;;;;;;;5.13;3.28;;;;;;;8.01;63.00;100483.66;5042276;27;98037;-70
2023/10/16 02:42:05;;;;;;;6.25;4.25;;;;;;;7.62;63.05;100436.50;5053881;27;97991;-70
2023/10/16 02:44:33;;;;;;;6.70;3.58;;;;;;;7.82;63.12;100460.50;5054856;27;97060;-75
2023/10/16 02:46:58;;;;;;;5.25;4.18;;;;;;;8.00;63.34;100497.59;5057669;27;97211;-71
2023/10/16 02:49:24;;;;;;;32.45;20.88;;;;;;;7.95;63.35;100495.09;5049589;27;101215;-70
2023/10/16 02:51:52;;;;;;;6.90;6.32;;;;;;;7.98;63.72;100507.25;5060337;27;97815;-71
2023/10/16 02:54:18;;;;;;;7.85;5.97;;;;;;;7.57;63.50;100447.06;5042631;27;97249;-73
2023/10/16 02:56:44;;;;;;;23.55;12.75;;;;;;;7.78;63.40;100490.19;5044472;27;96727;-71
2023/10/16 02:59:11;;;;;;;7.80;7.05;;;;;;;7.89;63.38;100510.91;5064153;27;101275;-71
2023/10/16 03:01:37;;;;;;;8.98;4.60;;;;;;;7.80;63.68;100511.94;5064184;27;97875;-71
2023/10/16 03:04:05;;;;;;;5.57;5.07;;;;;;;7.78;63.81;100516.34;5048961;27;97097;-71
2023/10/16 03:06:34;;;;;;;6.05;5.03;;;;;;;7.76;63.90;100509.41;5057036;27;97165;-76
2023/10/16 03:09:25;;;;;;;6.32;5.50;;;;;;;7.80;63.60;100522.41;5055283;27;98115;-73
2023/10/16 03:11:47;;;;;;;9.60;6.40;;;;;;;7.78;63.58;100524.19;5042467;27;97298;-71
2023/10/16 03:14:12;;;;;;;15.85;14.00;;;;;;;7.80;63.61;100519.78;5047205;27;96979;-71
2023/10/16 03:16:38;;;;;;;4.13;1.70;;;;;;;7.67;63.86;100516.53;5045761;27;97437;-77
2023/10/16 03:19:09;;;;;;;8.02;2.03;;;;;;;7.76;63.91;100530.31;5050495;27;97373;-71
2023/10/16 03:21:35;;;;;;;6.63;3.17;;;;;;;7.61;64.27;100498.38;5055917;27;101047;-73
2023/10/16 03:24:00;;;;;;;5.07;3.10;;;;;;;7.70;64.01;100528.69;5048834;27;96838;-71
2023/10/16 03:26:31;;;;;;;10.57;3.00;;;;;;;7.70;63.79;100524.31;5055982;27;97123;-71
2023/10/16 03:29:02;;;;;;;9.07;4.40;;;;;;;7.68;63.91;100523.50;5063450;27;98014;-73
2023/10/16 03:31:29;;;;;;;5.00;4.50;;;;;;;7.69;64.26;100519.13;5064944;27;97998;-75
2023/10/16 03:33:55;;;;;;;5.22;4.60;;;;;;;7.67;64.12;100524.38;5036080;27;96775;-70
2023/10/16 03:36:21;;;;;;;7.00;6.40;;;;;;;7.63;64.32;100527.09;5033121;27;97387;-70
2023/10/16 03:38:53;;;;;;;9.35;6.63;;;;;;;7.67;64.07;100532.22;5043769;27;97075;-71
2023/10/16 03:44:26;;;;;;;11.38;6.40;;;;;;;7.64;64.02;100534.88;5052885;27;97063;-70
2023/10/16 03:46:52;;;;;;;7.22;6.53;;;;;;;7.61;64.11;100531.47;5044961;27;96766;-71
2023/10/16 03:49:18;;;;;;;6.45;5.03;;;;;;;7.66;64.12;100534.88;5038049;27;98221;-76
2023/10/16 03:51:48;;;;;;;8.40;7.60;;;;;;;7.59;64.12;100528.91;5056578;27;97173;-76
2023/10/16 03:54:16;;;;;;;12.60;8.95;;;;;;;7.35;64.36;100497.97;5040800;27;97328;-72
2023/10/16 03:56:41;;;;;;;5.22;3.88;;;;;;;7.48;64.46;100533.47;5042188;27;97164;-71
2023/10/16 03:59:07;;;;;;;10.18;7.50;;;;;;;7.44;64.58;100527.41;5044627;27;97953;-70
2023/10/16 04:01:37;;;;;;;6.07;4.35;;;;;;;7.53;64.63;100543.81;5068589;27;97671;-71
2023/10/16 04:04:03;;;;;;;11.23;9.05;;;;;;;7.56;64.43;100544.59;5071419;27;96677;-71
2023/10/16 04:06:30;;;;;;;11.75;10.85;;;;;;;7.24;64.81;100498.16;5054955;27;97053;-74
2023/10/16 04:08:58;;;;;;;13.85;11.10;;;;;;;7.52;64.72;100537.72;5043339;27;97531;-70
2023/10/16 04:11:24;;;;;;;10.65;8.60;;;;;;;7.58;64.20;100534.13;5043563;27;97447;-76
2023/10/16 04:13:49;;;;;;;11.38;10.20;;;;;;;7.64;64.13;100534.88;5055355;27;96854;-73
2023/10/16 04:19:35;;;;;;;14.55;13.15;;;;;;;7.68;64.41;100541.78;5040080;27;97532;-71
2023/10/16 04:22:09;;;;;;;12.68;11.40;;;;;;;7.54;64.14;100517.66;5042681;27;99115;-71
2023/10/16 04:24:44;;;;;;;7.93;7.32;;;;;;;7.48;64.10;100508.19;5037758;27;97869;-71
2023/10/16 04:29:49;;;;;;;4.13;3.70;;;;;;;7.56;64.68;100544.59;5033432;27;101477;-71
2023/10/16 04:35:29;;;;;;;7.82;4.32;;;;;;;7.62;64.42;100538.41;5032592;27;97032;-72
2023/10/16 04:37:55;;;;;;;9.77;4.78;;;;;;;7.56;64.33;100535.91;5056697;27;97079;-71
2023/10/16 04:43:09;;;;;;;12.27;4.60;;;;;;;7.52;63.89;100540.34;5041747;27;98059;-71
2023/10/16 04:45:59;;;;;;;8.50;4.55;;;;;;;7.49;64.38;100543.00;5041541;27;97576;-73
2023/10/16 04:49:14;;;;;;;7.72;4.57;;;;;;;7.43;64.73;100545.72;5038964;27;97206;-86
2023/10/16 04:51:22;;;;;;;6.60;4.22;;;;;;;7.36;64.73;100521.47;5047787;27;97060;-83
2023/10/16 05:02:16;;;;;;;6.20;4.47;;;;;;;7.47;64.87;100536.94;5012283;27;98050;-77
2023/10/16 05:04:59;;;;;;;9.45;3.45;;;;;;;7.49;64.48;100532.56;5030706;27;98493;-74
2023/10/16 05:07:38;;;;;;;6.32;3.00;;;;;;;7.62;64.48;100536.69;5024205;27;97416;-74
2023/10/16 05:10:17;;;;;;;9.23;2.92;;;;;;;7.50;63.97;100508.16;5045405;27;96940;-76
2023/10/16 05:15:41;;;;;;;8.82;2.75;;;;;;;7.74;64.00;100546.03;5064944;27;97510;-76
2023/10/16 05:18:20;;;;;;;7.38;4.22;;;;;;;7.66;63.56;100525.28;5057431;27;97339;-75
2023/10/16 05:21:05;;;;;;;8.90;7.00;;;;;;;7.90;63.39;100549.22;5043918;27;96717;-75
2023/10/16 06:15:46;;;;;;;7.53;6.38;;;;;;;9.39;58.26;100493.50;5052115;27;96850;-76
2023/10/16 06:18:12;;;;;;;7.82;5.55;;;;;;;9.53;58.27;100541.16;5049694;27;101555;-76
2023/10/16 06:20:43;;;;;;;10.02;4.20;;;;;;;10.19;56.91;100568.22;5055877;27;97200;-75
2023/10/16 06:23:10;;;;;;;9.90;5.93;;;;;;;11.24;54.42;100556.25;5027524;27;96868;-79
2023/10/16 06:25:37;;;;;;;7.40;5.57;;;;;;;12.24;52.79;100577.31;5044800;27;97275;-77
2023/10/16 06:28:10;;;;;;;9.00;6.22;;;;;;;11.95;53.11;100577.53;5042709;27;97617;-78
2023/10/16 06:30:37;;;;;;;6.15;4.50;;;;;;;11.59;53.78;100585.75;5043188;27;97355;-78
2023/10/16 06:33:05;;;;;;;9.98;6.10;;;;;;;11.21;54.38;100582.63;5032779;27;97507;-76
2023/10/16 06:35:31;;;;;;;15.70;5.50;;;;;;;11.00;55.42;100575.47;5022544;27;97298;-78
2023/10/16 06:37:56;;;;;;;10.00;5.28;;;;;;;11.13;55.10;100578.53;5022076;27;101327;-78
2023/10/16 06:40:25;;;;;;;13.02;5.93;;;;;;;11.14;54.34;100554.84;5045265;27;97430;-76
2023/10/16 06:43:09;;;;;;;11.13;5.95;;;;;;;11.31;54.59;100581.44;5042898;27;97297;-86
2023/10/16 06:45:41;;;;;;;11.40;6.75;;;;;;;11.03;55.49;100583.25;5041997;27;97204;-87
2023/10/16 06:48:15;;;;;;;39.53;30.20;;;;;;;10.78;55.70;100591.88;5046872;27;98656;-87
2023/10/16 06:50:52;;;;;;;36.45;18.10;;;;;;;10.57;55.97;100580.25;5042751;27;96757;-87
2023/10/16 06:53:18;;;;;;;35.20;18.73;;;;;;;10.42;56.16;100573.69;5031283;27;97102;-87
2023/10/16 06:55:45;;;;;;;29.80;12.20;;;;;;;10.65;56.13;100593.16;5026772;27;96924;-87
2023/10/16 06:58:12;;;;;;;43.13;14.40;;;;;;;10.81;56.08;100604.91;5039253;27;97505;-77
2023/10/16 07:00:40;;;;;;;10.50;2.13;;;;;;;10.87;55.69;100602.06;5061108;27;97504;-74
2023/10/16 07:03:09;;;;;;;8.57;3.92;;;;;;;10.70;55.70;100566.75;5055546;27;98109;-74
2023/10/16 07:05:44;;;;;;;8.23;3.45;;;;;;;11.36;54.63;100599.66;5045188;27;97190;-74
2023/10/16 07:08:10;;;;;;;29.90;15.77;;;;;;;12.48;53.05;100603.69;5043607;27;101166;-75
2023/10/16 07:10:40;;;;;;;12.93;1.92;;;;;;;13.91;49.18;100587.41;5055685;27;97531;-78
2023/10/16 07:13:09;;;;;;;7.40;1.60;;;;;;;14.50;46.87;100566.22;5049807;27;97232;-74
2023/10/16 07:15:35;;;;;;;5.00;1.38;;;;;;;14.61;46.57;100572.84;5063391;27;97439;-74
2023/10/16 07:18:06;;;;;;;6.53;1.80;;;;;;;14.03;47.86;100611.47;5049948;27;97965;-76
2023/10/16 07:20:51;;;;;;;9.38;2.25;;;;;;;13.23;49.97;100603.38;5038532;27;98003;-74
2023/10/16 07:23:17;;;;;;;9.00;2.22;;;;;;;12.40;51.05;100584.69;5032133;27;97187;-75
2023/10/16 07:26:03;;;;;;;12.55;2.40;;;;;;;12.11;51.43;100618.19;5042992;27;97288;-72
2023/10/16 07:28:30;;;;;;;6.30;1.70;;;;;;;11.80;53.21;100610.47;5063935;27;98022;-73
2023/10/16 07:30:56;;;;;;;9.02;4.10;;;;;;;11.87;52.99;100608.50;5023288;27;101034;-73
2023/10/16 07:33:23;;;;;;;7.63;3.72;;;;;;;11.75;53.18;100615.91;5057509;27;96728;-73
2023/10/16 07:35:50;;;;;;;11.65;2.50;;;;;;;11.43;53.64;100618.72;5040089;27;96877;-74
2023/10/16 07:38:20;;;;;;;7.13;2.53;;;;;;;11.21;54.00;100622.06;5045887;27;99160;-72
2023/10/16 07:40:53;;;;;;;6.07;3.10;;;;;;;11.32;53.80;100624.34;5031128;27;101531;-73
2023/10/16 07:43:28;;;;;;;11.95;4.28;;;;;;;11.30;53.54;100613.88;5051975;27;97154;-71
2023/10/16 07:48:50;;;;;;;8.50;2.22;;;;;;;11.01;53.54;100587.66;5041166;27;98259;-71
2023/10/16 07:51:19;;;;;;;7.63;1.73;;;;;;;11.02;53.69;100620.91;5041188;27;98140;-71
2023/10/16 07:53:48;;;;;;;4.72;1.60;;;;;;;10.78;54.24;100591.88;5039464;27;98250;-71
2023/10/16 07:58:54;;;;;;;6.32;2.92;;;;;;;11.23;53.55;100615.00;5044143;27;98246;-72
2023/10/16 08:01:32;;;;;;;5.10;1.90;;;;;;;11.32;53.50;100625.19;5023807;27;97381;-72
2023/10/16 08:04:01;;;;;;;6.80;2.15;;;;;;;11.22;53.41;100594.00;5054148;27;97939;-71
2023/10/16 08:06:28;;;;;;;9.30;2.35;;;;;;;11.64;52.73;100618.03;5037263;27;97690;-73
2023/10/16 08:11:44;;;;;;;7.03;2.10;;;;;;;14.57;46.63;100610.88;5047330;27;98063;-72
2023/10/16 08:14:10;;;;;;;5.53;2.10;;;;;;;16.76;41.93;100581.31;5057123;27;97531;-73
2023/10/16 08:16:38;;;;;;;5.78;2.47;;;;;;;18.98;38.12;100593.69;5045750;27;97338;-72
2023/10/16 08:19:14;;;;;;;13.18;2.90;;;;;;;17.35;40.08;100611.53;5055598;27;98028;-77
2023/10/16 08:21:42;;;;;;;5.63;3.45;;;;;;;20.46;35.58;100582.75;5036759;27;98632;-73
2023/10/16 08:24:08;;;;;;;13.43;3.00;;;;;;;22.85;32.31;100584.28;5053657;27;97113;-76
2023/10/16 08:26:42;;;;;;;19.38;16.30;;;;;;;26.92;26.93;100570.97;5020464;27;96931;-76
2023/10/16 08:29:11;;;;;;;27.15;18.60;;;;;;;25.26;28.54;100586.72;5042546;27;97598;-77
2023/10/16 08:31:41;;;;;;;9.35;3.10;;;;;;;26.70;26.26;100588.38;5052551;27;97876;-79
2023/10/16 08:34:09;;;;;;;7.72;2.55;;;;;;;23.24;29.28;100573.00;5045211;27;97180;-75
2023/10/16 08:36:34;;;;;;;7.60;2.80;;;;;;;24.02;29.17;100594.16;5038435;27;98075;-76
2023/10/16 08:39:08;;;;;;;7.28;2.13;;;;;;;22.07;31.33;100594.81;5057593;27;97405;-77
2023/10/16 08:42:00;;;;;;;9.13;2.05;;;;;;;23.63;29.48;100592.06;5025775;27;98546;-75
2023/10/16 08:44:27;;;;;;;31.38;15.20;;;;;;;28.93;23.51;100587.25;5047095;27;97334;-77
2023/10/16 08:49:25;;;;;;;26.88;20.05;;;;;;;32.33;20.56;100561.75;5035114;27;97627;-82
2023/10/16 08:51:55;;;;;;;4.43;1.70;;;;;;;32.09;20.38;100575.63;5043200;27;97521;-75
2023/10/16 08:57:08;;;;;;;6.82;2.25;;;;;;;27.91;23.85;100588.91;5034802;27;96917;-75
2023/10/16 08:59:35;;;;;;;4.75;1.90;;;;;;;31.23;21.02;100585.81;5041661;27;98090;-77
2023/10/16 09:02:01;;;;;;;6.40;1.95;;;;;;;32.20;20.23;100588.72;5052956;27;97395;-76
2023/10/16 09:04:27;;;;;;;7.50;2.10;;;;;;;30.36;21.78;100578.63;5038686;27;97232;-80
2023/10/16 09:06:53;;;;;;;6.45;1.95;;;;;;;29.14;22.54;100590.34;5050448;27;96759;-76
2023/10/16 09:09:20;;;;;;;3.90;1.58;;;;;;;30.27;21.41;100592.38;5044353;27;97253;-76
2023/10/16 09:11:47;;;;;;;4.35;1.90;;;;;;;25.51;26.23;100603.25;5060657;27;97479;-76
2023/10/16 09:14:20;;;;;;;4.38;1.60;;;;;;;23.92;28.27;100602.16;5056854;27;96748;-76
2023/10/16 09:16:55;;;;;;;5.53;1.75;;;;;;;21.61;31.08;100606.41;5061771;27;97205;-82
2023/10/16 09:19:33;;;;;;;6.75;2.10;;;;;;;20.78;32.33;100609.81;5047234;27;98033;-83
2023/10/16 09:21:59;;;;;;;7.13;2.33;;;;;;;19.59;33.88;100615.41;5029103;27;101320;-74
2023/10/16 09:24:24;;;;;;;3.88;1.70;;;;;;;27.98;24.63;100585.44;5033740;27;97116;-82
2023/10/16 09:26:54;;;;;;;6.07;2.05;;;;;;;33.64;19.33;100578.09;5043636;27;96965;-82
2023/10/16 09:29:27;;;;;;;9.68;2.55;;;;;;;36.02;16.84;100578.13;5035105;27;99106;-82
2023/10/16 09:31:53;;;;;;;4.95;1.52;;;;;;;32.03;19.71;100588.06;5041044;27;97830;-81
2023/10/16 09:34:21;;;;;;;4.47;1.60;;;;;;;27.16;24.40;100589.25;5028242;27;97416;-82
2023/10/16 09:39:35;;;;;;;4.88;1.67;;;;;;;21.72;30.57;100602.03;5051888;27;101252;-83
2023/10/16 09:42:06;;;;;;;7.13;2.03;;;;;;;20.73;32.01;100621.78;5050456;27;97571;-82
2023/10/16 09:44:38;;;;;;;6.68;2.03;;;;;;;21.30;31.79;100612.31;5003126;27;96881;-82
2023/10/16 09:47:25;;;;;;;9.52;1.83;;;;;;;20.05;33.42;100614.97;5023597;27;97487;-82
2023/10/16 09:49:49;;;;;;;5.85;1.88;;;;;;;19.20;35.01;100609.97;5048270;27;101180;-81
2023/10/16 09:52:20;;;;;;;9.82;2.08;;;;;;;18.30;36.41;100613.03;5041834;27;98008;-78
2023/10/16 09:54:48;;;;;;;7.75;2.30;;;;;;;17.50;37.34;100593.00;5050159;27;97521;-75
2023/10/16 09:57:19;;;;;;;6.60;4.60;;;;;;;17.14;37.83;100626.03;5044663;27;96876;-76
2023/10/16 09:59:45;;;;;;;7.75;6.60;;;;;;;16.57;39.05;100626.47;5034266;27;101727;-76
2023/10/16 10:02:21;;;;;;;9.63;4.68;;;;;;;16.00;40.33;100607.44;5037609;27;99341;-75
2023/10/16 10:05:08;;;;;;;7.43;1.98;;;;;;;15.92;41.15;100633.47;5045274;27;98059;-75
2023/10/16 10:07:38;;;;;;;7.03;1.83;;;;;;;15.77;41.30;100629.81;5037085;27;97300;-75
2023/10/16 10:13:01;;;;;;;5.80;1.98;;;;;;;15.80;41.96;100637.59;5024638;27;101508;-82
2023/10/16 10:15:35;;;;;;;12.13;6.22;;;;;;;15.64;42.30;100618.94;5032157;27;96832;-82
2023/10/16 10:18:31;;;;;;;9.75;6.40;;;;;;;15.67;42.38;100631.16;5022882;27;97339;-82
2023/10/16 10:20:58;;;;;;;12.32;6.53;;;;;;;15.17;42.61;100608.91;5047501;27;98582;-82
2023/10/16 10:23:25;;;;;;;26.63;14.90;;;;;;;15.68;42.86;100644.34;5043004;27;97588;-82
2023/10/16 10:25:53;;;;;;;30.58;16.30;;;;;;;16.77;40.72;100636.00;5043160;27;98589;-82
2023/10/16 10:28:29;;;;;;;6.03;1.60;;;;;;;16.64;40.95;100633.16;5033846;27;96973;-82
2023/10/16 10:31:05;;;;;;;7.63;1.77;;;;;;;15.97;41.47;100642.88;4999333;27;102533;-82
2023/10/16 10:33:57;;;;;;;6.68;2.25;;;;;;;15.45;42.02;100631.38;5010321;27;100439;-82
2023/10/16 10:36:33;;;;;;;10.43;4.80;;;;;;;15.32;42.46;100641.69;5043856;27;97139;-84
2023/10/16 10:39:21;;;;;;;7.40;1.90;;;;;;;16.27;41.12;100643.06;5019678;27;96941;-84
2023/10/16 10:41:51;;;;;;;8.40;6.47;;;;;;;16.37;40.62;100629.31;5062797;27;98026;-81
2023/10/16 10:44:19;;;;;;;10.32;5.03;;;;;;;16.27;40.50;100592.75;5035057;27;97697;-84
2023/10/16 10:46:53;;;;;;;5.90;5.30;;;;;;;16.81;39.72;100621.63;5030612;27;97340;-82
2023/10/16 10:49:35;;;;;;;10.98;7.55;;;;;;;17.11;39.94;100624.41;5045224;27;97701;-82
2023/10/16 10:52:02;;;;;;;7.43;2.80;;;;;;;17.26;39.20;100617.38;5040493;27;100073;-85
2023/10/16 10:54:28;;;;;;;6.00;2.22;;;;;;;16.81;39.79;100619.00;5026204;27;97823;-82
2023/10/16 10:56:59;;;;;;;12.63;3.30;;;;;;;16.74;39.81;100580.50;5033115;27;97316;-80
2023/10/16 10:59:40;;;;;;;13.10;4.33;;;;;;;16.94;39.98;100605.94;5017447;27;97217;-82
2023/10/16 11:02:20;;;;;;;8.48;2.83;;;;;;;16.90;39.59;100602.59;5031354;27;101344;-80
2023/10/16 11:04:54;;;;;;;7.63;4.55;;;;;;;16.78;39.51;100590.00;5008622;27;101309;-81
2023/10/16 11:07:39;;;;;;;5.82;4.30;;;;;;;16.45;40.14;100605.94;5044554;27;97345;-81
2023/10/16 11:10:06;;;;;;;5.85;4.25;;;;;;;16.32;40.89;100612.81;5036597;27;96990;-83
2023/10/16 11:12:32;;;;;;;5.43;4.10;;;;;;;16.24;40.71;100611.44;5034720;27;101286;-81
2023/10/16 11:14:58;;;;;;;13.70;3.97;;;;;;;16.14;40.92;100612.84;5029841;27;101717;-82
2023/10/16 11:17:39;;;;;;;7.45;4.68;;;;;;;16.01;41.62;100612.66;5019142;27;97375;-80
2023/10/16 11:22:48;;;;;;;10.75;5.07;;;;;;;16.01;41.09;100607.34;5059143;27;97575;-82
2023/10/16 11:25:14;;;;;;;11.35;5.43;;;;;;;15.83;41.76;100603.00;5042717;27;98370;-84
2023/10/16 11:27:42;;;;;;;5.75;5.15;;;;;;;15.95;41.29;100599.72;5043021;27;97063;-83
2023/10/16 11:30:11;;;;;;;8.93;5.05;;;;;;;15.94;40.71;100607.72;5033547;27;99201;-82
2023/10/16 11:32:41;;;;;;;9.52;5.60;;;;;;;15.43;41.47;100565.31;5023184;27;100376;-80
2023/10/16 11:35:18;;;;;;;6.70;5.22;;;;;;;15.48;41.60;100580.97;5030259;27;97938;-74
2023/10/16 11:37:52;;;;;;;6.80;4.70;;;;;;;15.67;41.48;100592.31;5033633;27;97306;-78
2023/10/16 11:40:26;;;;;;;7.22;5.30;;;;;;;15.44;41.30;100574.94;5048373;27;97211;-80
2023/10/16 11:42:52;;;;;;;8.07;5.75;;;;;;;15.51;41.98;100602.81;5033456;27;101469;-79
2023/10/16 11:45:21;;;;;;;9.55;7.68;;;;;;;15.39;41.82;100603.44;5038806;27;100992;-82
2023/10/16 11:50:40;;;;;;;8.98;1.95;;;;;;;14.57;43.21;100539.53;5026560;27;97518;-80
2023/10/16 11:53:09;;;;;;;17.63;8.30;;;;;;;14.80;43.86;100576.31;5016620;27;100738;-78
2023/10/16 11:55:38;;;;;;;10.18;4.47;;;;;;;14.57;44.58;100565.97;5030131;27;101436;-79
2023/10/16 11:58:06;;;;;;;5.60;2.25;;;;;;;14.41;44.39;100586.91;5045862;27;97477;-78
2023/10/16 12:00:35;;;;;;;4.75;2.90;;;;;;;14.17;44.58;100587.09;5026782;27;97430;-82
2023/10/16 12:03:07;;;;;;;6.72;4.45;;;;;;;13.86;44.51;100599.94;5052693;27;97692;-74
2023/10/16 12:05:34;;;;;;;7.30;6.55;;;;;;;13.66;45.10;100559.44;5044454;27;101553;-82
2023/10/16 12:08:02;;;;;;;7.35;5.75;;;;;;;13.63;45.34;100558.72;5041174;27;97203;-79
2023/10/16 12:10:29;;;;;;;11.38;6.63;;;;;;;13.92;45.50;100589.09;5047893;27;96900;-73
2023/10/16 12:12:55;;;;;;;6.30;2.58;;;;;;;13.87;45.90;100584.00;5041840;27;97510;-73
2023/10/16 12:15:24;;;;;;;6.28;5.45;;;;;;;13.96;46.16;100585.41;5057668;27;97387;-73
2023/10/16 12:17:49;;;;;;;5.93;4.53;;;;;;;14.17;45.47;100583.63;5041074;27;97510;-74
2023/10/16 12:20:16;;;;;;;5.18;4.68;;;;;;;14.40;44.84;100554.38;5060979;27;96810;-73
2023/10/16 12:22:44;;;;;;;7.88;5.18;;;;;;;14.52;43.73;100526.56;5037476;27;97500;-75
2023/10/16 12:25:10;;;;;;;3.45;2.55;;;;;;;15.03;43.14;100577.00;5051762;27;97488;-76
2023/10/16 12:27:39;;;;;;;6.95;3.55;;;;;;;15.05;42.69;100572.50;5055866;27;97897;-73
2023/10/16 12:30:06;;;;;;;4.47;2.00;;;;;;;14.79;42.88;100574.59;5038901;27;97331;-74
2023/10/16 12:32:32;;;;;;;9.10;2.70;;;;;;;14.22;43.71;100542.00;5019845;27;101871;-74
2023/10/16 12:35:00;;;;;;;9.98;3.33;;;;;;;13.94;44.97;100571.44;5042129;27;97402;-74
2023/10/16 12:37:27;;;;;;;15.25;9.32;;;;;;;14.00;47.37;100600.19;5040425;27;98152;-74
2023/10/16 12:39:54;;;;;;;4.80;2.90;;;;;;;13.81;48.38;100579.84;5026838;27;96859;-81
2023/10/16 12:42:20;;;;;;;9.60;9.00;;;;;;;14.03;47.46;100571.03;5036940;27;98338;-81
2023/10/16 12:44:46;;;;;;;2.03;1.77;;;;;;;14.26;46.66;100565.56;5035446;27;101316;-82
2023/10/16 12:47:14;;;;;;;4.65;2.30;;;;;;;14.31;45.97;100561.84;5038769;27;97179;-84
2023/10/16 12:49:40;;;;;;;7.53;2.03;;;;;;;14.18;46.63;100543.06;5033416;27;96782;-82
2023/10/16 12:52:07;;;;;;;5.38;2.38;;;;;;;14.43;47.01;100583.28;5021187;27;98622;-82
2023/10/16 12:54:32;;;;;;;5.05;3.13;;;;;;;14.38;46.85;100574.72;5030490;27;101380;-83
2023/10/16 12:56:59;;;;;;;5.57;1.30;;;;;;;14.34;47.33;100594.28;5045880;27;96779;-83
2023/10/16 12:59:27;;;;;;;4.70;1.50;;;;;;;14.11;46.93;100590.03;5026787;27;97917;-82
2023/10/16 13:01:53;;;;;;;4.30;1.42;;;;;;;14.07;46.89;100595.50;5046195;27;101212;-82
2023/10/16 13:04:19;;;;;;;8.68;5.40;;;;;;;13.88;47.22;100590.19;5015707;27;101518;-82
2023/10/16 13:06:45;;;;;;;9.70;5.82;;;;;;;13.72;47.20;100596.09;5029084;27;97288;-82
2023/10/16 13:09:15;;;;;;;6.90;3.20;;;;;;;13.53;47.45;100566.16;5044750;27;96921;-82
2023/10/16 13:11:41;;;;;;;7.07;3.20;;;;;;;13.94;47.30;100598.69;5018939;27;99407;-82
2023/10/16 13:14:07;;;;;;;6.35;3.50;;;;;;;13.91;47.63;100553.94;5044281;27;97492;-82
2023/10/16 13:16:33;;;;;;;4.22;3.53;;;;;;;14.11;46.69;100591.78;5009845;27;97235;-82
2023/10/16 13:18:59;;;;;;;6.22;3.60;;;;;;;13.77;46.72;100580.94;5049020;27;97908;-81